Gaz Unity — HOEJ — position and weather

sailwx.info

Track history (hours):
 
Tides and Currents Weather Stations Pressure Air Temp Water Temp Dewpoint Dewpoint Depression Visibility Wind Speed Wind Dir Waves Ship Positions

Gaz Unity

Last reported at 2017-Jun-17 13:17 UTC. Time now 2017-Jun-22 22:26 UTC.
Position N 34°34' E 024°48'.

Length 228 m; draft 8.2 m.

Type: Ship. MMSI: 353956000.

Date/timePositionNaut miles runAvg speedWind from/ knotsBaromVisibWave heightAir tempDewpointWater temp
2017-Jun-17 13:17N 34°34' E 024°48'3 1.4
2017-Jun-17 11:05N 34°33' E 024°45'1 1.5
2017-Jun-17 10:37N 34°33' E 024°44'1 1.4
2017-Jun-17 10:16N 34°33' E 024°43'3 0.3
2017-Jun-16 21:08N 34°31' E 024°40'55 2.8
2017-Jun-16 01:39N 33°59' E 025°35'2 1.1
2017-Jun-16 00:00N 34°01' E 025°36'3 1.2
2017-Jun-15 21:20N 34°04' E 025°36'0 1.4
2017-Jun-15 21:00N 34°05' E 025°36'1 1.4
2017-Jun-15 20:29N 34°05' E 025°36'1 1.5
2017-Jun-15 19:59N 34°06' E 025°36'1 1.4
2017-Jun-15 19:30N 34°07' E 025°35'1 1.5
2017-Jun-15 19:00N 34°07' E 025°35'1 1.4
2017-Jun-15 18:29N 34°08' E 025°34'1 1.3
2017-Jun-15 18:00N 34°08' E 025°34'1 1.4
2017-Jun-15 17:30N 34°09' E 025°33'5 1.1
2017-Jun-15 12:21N 34°10' E 025°27'0 1.0
2017-Jun-15 11:58N 34°10' E 025°26'0 0.9
2017-Jun-15 11:30N 34°10' E 025°26'3 0.9
2017-Jun-15 08:01N 34°10' E 025°22'0 0.7
2017-Jun-15 08:00N 34°10' E 025°22'1 0.8
2017-Jun-15 06:42N 34°09' E 025°21'1 0.9
2017-Jun-15 05:31N 34°09' E 025°20'0 1.0
2017-Jun-15 05:30N 34°09' E 025°20'0 0.9
2017-Jun-15 05:00N 34°09' E 025°19'2 0.9
2017-Jun-15 02:51N 34°09' E 025°17'16 0.7
2017-Jun-14 05:04N 34°16' E 024°60'0 1.3
2017-Jun-14 04:48N 34°17' E 024°60'0 1.3
2017-Jun-14 04:30N 34°17' E 024°59'  
2017-Jun-10 00:30N 36°56' E 023°35'713.6
2017-Jun-10 00:00N 37°02' E 023°39'713.5
2017-Jun-09 23:30N 37°08' E 023°42'713.5
2017-Jun-09 23:00N 37°15' E 023°45'713.2
2017-Jun-09 22:30N 37°21' E 023°45'612.9
2017-Jun-09 22:00N 37°27' E 023°47'612.7
2017-Jun-09 21:30N 37°34' E 023°46'713.1
2017-Jun-09 21:01N 37°40' E 023°42'713.2
2017-Jun-09 20:30N 37°46' E 023°38'611.4
2017-Jun-09 20:00N 37°50' E 023°34'2 3.8
2017-Jun-09 19:29N 37°51' E 023°31'0 0.1
2017-Jun-09 18:59N 37°51' E 023°31'0 0.0
2017-Jun-09 18:26N 37°51' E 023°31'0 0.0
2017-Jun-09 17:59N 37°51' E 023°31'0 0.0
2017-Jun-09 17:29N 37°51' E 023°31'0 0.0
2017-Jun-09 16:59N 37°51' E 023°31'0 0.0
2017-Jun-09 16:29N 37°51' E 023°31'0 0.0
2017-Jun-09 15:59N 37°51' E 023°31'0 0.0
2017-Jun-09 15:28N 37°51' E 023°31'0 0.0
2017-Jun-09 14:59N 37°51' E 023°31'0 0.0
2017-Jun-09 13:59N 37°51' E 023°31'0 0.0
2017-Jun-09 13:29N 37°51' E 023°31'0 0.0
2017-Jun-09 12:58N 37°51' E 023°31'0 0.0
2017-Jun-09 12:29N 37°51' E 023°31'0 0.0
2017-Jun-09 11:55N 37°51' E 023°31'0 0.1
2017-Jun-09 11:29N 37°51' E 023°31'0 0.1
2017-Jun-09 10:59N 37°51' E 023°31'0 0.1
2017-Jun-09 10:26N 37°51' E 023°31'0 0.0
2017-Jun-09 09:45N 37°51' E 023°31'0 0.0
2017-Jun-09 09:30N 37°51' E 023°31'0 0.0
2017-Jun-09 08:57N 37°51' E 023°31'0 0.0
2017-Jun-09 08:30N 37°51' E 023°31'0 0.0
2017-Jun-09 08:00N 37°51' E 023°31'0 0.1
2017-Jun-09 07:30N 37°51' E 023°31'0 0.0
2017-Jun-09 07:00N 37°51' E 023°31'0 0.1
2017-Jun-09 06:30N 37°51' E 023°31'0 0.1
2017-Jun-09 06:00N 37°51' E 023°31'0 0.0
2017-Jun-09 05:30N 37°51' E 023°31'0 0.1
2017-Jun-09 05:00N 37°51' E 023°31'0 0.1
2017-Jun-09 04:30N 37°51' E 023°32'0 0.0
2017-Jun-09 04:00N 37°51' E 023°32'0 0.0
2017-Jun-09 03:30N 37°51' E 023°32'0 0.0
2017-Jun-09 02:57N 37°51' E 023°31'0 0.0
2017-Jun-09 02:30N 37°51' E 023°31'0 0.0
2017-Jun-09 02:00N 37°51' E 023°32'0 0.1
2017-Jun-09 01:30N 37°51' E 023°31'0 0.0
2017-Jun-09 01:00N 37°51' E 023°31'0 0.2
2017-Jun-09 00:30N 37°51' E 023°32'0 0.0
2017-Jun-09 00:00N 37°51' E 023°32'0 0.0
2017-Jun-08 23:30N 37°51' E 023°32'0 0.1
2017-Jun-08 23:00N 37°51' E 023°31'0 0.0
2017-Jun-08 22:30N 37°51' E 023°31'0 0.1
2017-Jun-08 22:00N 37°51' E 023°32'0 0.1
2017-Jun-08 21:30N 37°51' E 023°31'0 0.0
2017-Jun-08 21:00N 37°51' E 023°31'0 0.1
2017-Jun-08 20:30N 37°51' E 023°32'0 0.0
2017-Jun-08 20:00N 37°51' E 023°32'0 0.0
2017-Jun-08 19:30N 37°51' E 023°32'0 0.1
2017-Jun-08 19:00N 37°51' E 023°31'0 0.0
2017-Jun-08 18:30N 37°51' E 023°32'0 0.0
2017-Jun-08 18:00N 37°51' E 023°32'0 0.1
2017-Jun-08 17:27N 37°51' E 023°32'0 0.2
2017-Jun-08 17:00N 37°51' E 023°31'0 0.1
2017-Jun-08 16:30N 37°51' E 023°31'0 0.0
2017-Jun-08 16:00N 37°51' E 023°31'0 0.0
2017-Jun-08 15:30N 37°51' E 023°31'0 0.0
2017-Jun-08 15:00N 37°51' E 023°31'0 0.0
2017-Jun-08 14:27N 37°51' E 023°31'0 0.0
2017-Jun-08 13:30N 37°51' E 023°31'0 0.0
2017-Jun-08 13:00N 37°51' E 023°31'0 0.0
2017-Jun-08 12:30N 37°51' E 023°31'0 0.0
2017-Jun-08 12:00N 37°51' E 023°31'0 0.0
2017-Jun-08 11:30N 37°51' E 023°31'0 0.0
2017-Jun-08 11:00N 37°51' E 023°31'0 0.1
2017-Jun-08 10:27N 37°51' E 023°32'0 0.3
2017-Jun-08 10:00N 37°51' E 023°32'0 0.7
2017-Jun-08 09:30N 37°51' E 023°32'2 4.1
2017-Jun-08 09:00N 37°51' E 023°35'3 6.8
2017-Jun-08 08:30N 37°51' E 023°39'612.8
2017-Jun-08 08:00N 37°45' E 023°43'612.3
2017-Jun-08 07:30N 37°40' E 023°47'713.0
2017-Jun-08 07:00N 37°37' E 023°54'1911.3
2017-Jun-08 05:22N 37°45' E 024°16'713.8
2017-Jun-08 04:52N 37°49' E 024°23'6813.0
2017-Jun-07 23:39N 38°46' E 025°08'412.8
2017-Jun-07 23:20N 38°50' E 025°11'1712.9
2017-Jun-07 22:02N 39°05' E 025°20'113.1
2017-Jun-07 21:56N 39°06' E 025°21'713.1
2017-Jun-07 21:25N 39°12' E 025°25'3013.3
2017-Jun-07 19:10N 39°39' E 025°43'1813.1
2017-Jun-07 17:49N 39°54' E 025°53'514.0
2017-Jun-07 17:27N 39°59' E 025°57'1012.6
2017-Jun-07 16:41N 40°01' E 026°09'  
Track history (hours):
 
Tides and Currents Weather Stations Pressure Air Temp Water Temp Dewpoint Dewpoint Depression Visibility Wind Speed Wind Dir Waves Ship Positions

Gaz Unity

Last reported at 2017-Jun-17 13:17 UTC. Time now 2017-Jun-22 22:26 UTC.
Position N 34°34' E 024°48'.

Length 228 m; draft 8.2 m.

Type: Ship. MMSI: 353956000.

Date/timePositionNaut miles runAvg speedWind from/ knotsBaromVisibWave heightAir tempDewpointWater temp
2017-Jun-17 13:17N 34°34' E 024°48'3 1.4
2017-Jun-17 11:05N 34°33' E 024°45'1 1.5
2017-Jun-17 10:37N 34°33' E 024°44'1 1.4
2017-Jun-17 10:16N 34°33' E 024°43'3 0.3
2017-Jun-16 21:08N 34°31' E 024°40'55 2.8
2017-Jun-16 01:39N 33°59' E 025°35'2 1.1
2017-Jun-16 00:00N 34°01' E 025°36'3 1.2
2017-Jun-15 21:20N 34°04' E 025°36'0 1.4
2017-Jun-15 21:00N 34°05' E 025°36'1 1.4
2017-Jun-15 20:29N 34°05' E 025°36'1 1.5
2017-Jun-15 19:59N 34°06' E 025°36'1 1.4
2017-Jun-15 19:30N 34°07' E 025°35'1 1.5
2017-Jun-15 19:00N 34°07' E 025°35'1 1.4
2017-Jun-15 18:29N 34°08' E 025°34'1 1.3
2017-Jun-15 18:00N 34°08' E 025°34'1 1.4
2017-Jun-15 17:30N 34°09' E 025°33'5 1.1
2017-Jun-15 12:21N 34°10' E 025°27'0 1.0
2017-Jun-15 11:58N 34°10' E 025°26'0 0.9
2017-Jun-15 11:30N 34°10' E 025°26'3 0.9
2017-Jun-15 08:01N 34°10' E 025°22'0 0.7
2017-Jun-15 08:00N 34°10' E 025°22'1 0.8
2017-Jun-15 06:42N 34°09' E 025°21'1 0.9
2017-Jun-15 05:31N 34°09' E 025°20'0 1.0
2017-Jun-15 05:30N 34°09' E 025°20'0 0.9
2017-Jun-15 05:00N 34°09' E 025°19'2 0.9
2017-Jun-15 02:51N 34°09' E 025°17'16 0.7
2017-Jun-14 05:04N 34°16' E 024°60'0 1.3
2017-Jun-14 04:48N 34°17' E 024°60'0 1.3
2017-Jun-14 04:30N 34°17' E 024°59'  
2017-Jun-10 00:30N 36°56' E 023°35'713.6
2017-Jun-10 00:00N 37°02' E 023°39'713.5
2017-Jun-09 23:30N 37°08' E 023°42'713.5
2017-Jun-09 23:00N 37°15' E 023°45'713.2
2017-Jun-09 22:30N 37°21' E 023°45'612.9
2017-Jun-09 22:00N 37°27' E 023°47'612.7
2017-Jun-09 21:30N 37°34' E 023°46'713.1
2017-Jun-09 21:01N 37°40' E 023°42'713.2
2017-Jun-09 20:30N 37°46' E 023°38'611.4
2017-Jun-09 20:00N 37°50' E 023°34'2 3.8
2017-Jun-09 19:29N 37°51' E 023°31'0 0.1
2017-Jun-09 18:59N 37°51' E 023°31'0 0.0
2017-Jun-09 18:26N 37°51' E 023°31'0 0.0
2017-Jun-09 17:59N 37°51' E 023°31'0 0.0
2017-Jun-09 17:29N 37°51' E 023°31'0 0.0
2017-Jun-09 16:59N 37°51' E 023°31'0 0.0
2017-Jun-09 16:29N 37°51' E 023°31'0 0.0
2017-Jun-09 15:59N 37°51' E 023°31'0 0.0
2017-Jun-09 15:28N 37°51' E 023°31'0 0.0
2017-Jun-09 14:59N 37°51' E 023°31'0 0.0
2017-Jun-09 13:59N 37°51' E 023°31'0 0.0
2017-Jun-09 13:29N 37°51' E 023°31'0 0.0
2017-Jun-09 12:58N 37°51' E 023°31'0 0.0
2017-Jun-09 12:29N 37°51' E 023°31'0 0.0
2017-Jun-09 11:55N 37°51' E 023°31'0 0.1
2017-Jun-09 11:29N 37°51' E 023°31'0 0.1
2017-Jun-09 10:59N 37°51' E 023°31'0 0.1
2017-Jun-09 10:26N 37°51' E 023°31'0 0.0
2017-Jun-09 09:45N 37°51' E 023°31'0 0.0
2017-Jun-09 09:30N 37°51' E 023°31'0 0.0
2017-Jun-09 08:57N 37°51' E 023°31'0 0.0
2017-Jun-09 08:30N 37°51' E 023°31'0 0.0
2017-Jun-09 08:00N 37°51' E 023°31'0 0.1
2017-Jun-09 07:30N 37°51' E 023°31'0 0.0
2017-Jun-09 07:00N 37°51' E 023°31'0 0.1
2017-Jun-09 06:30N 37°51' E 023°31'0 0.1
2017-Jun-09 06:00N 37°51' E 023°31'0 0.0
2017-Jun-09 05:30N 37°51' E 023°31'0 0.1
2017-Jun-09 05:00N 37°51' E 023°31'0 0.1
2017-Jun-09 04:30N 37°51' E 023°32'0 0.0
2017-Jun-09 04:00N 37°51' E 023°32'0 0.0
2017-Jun-09 03:30N 37°51' E 023°32'0 0.0
2017-Jun-09 02:57N 37°51' E 023°31'0 0.0
2017-Jun-09 02:30N 37°51' E 023°31'0 0.0
2017-Jun-09 02:00N 37°51' E 023°32'0 0.1
2017-Jun-09 01:30N 37°51' E 023°31'0 0.0
2017-Jun-09 01:00N 37°51' E 023°31'0 0.2
2017-Jun-09 00:30N 37°51' E 023°32'0 0.0
2017-Jun-09 00:00N 37°51' E 023°32'0 0.0
2017-Jun-08 23:30N 37°51' E 023°32'0 0.1
2017-Jun-08 23:00N 37°51' E 023°31'0 0.0
2017-Jun-08 22:30N 37°51' E 023°31'0 0.1
2017-Jun-08 22:00N 37°51' E 023°32'0 0.1
2017-Jun-08 21:30N 37°51' E 023°31'0 0.0
2017-Jun-08 21:00N 37°51' E 023°31'0 0.1
2017-Jun-08 20:30N 37°51' E 023°32'0 0.0
2017-Jun-08 20:00N 37°51' E 023°32'0 0.0
2017-Jun-08 19:30N 37°51' E 023°32'0 0.1
2017-Jun-08 19:00N 37°51' E 023°31'0 0.0
2017-Jun-08 18:30N 37°51' E 023°32'0 0.0
2017-Jun-08 18:00N 37°51' E 023°32'0 0.1
2017-Jun-08 17:27N 37°51' E 023°32'0 0.2
2017-Jun-08 17:00N 37°51' E 023°31'0 0.1
2017-Jun-08 16:30N 37°51' E 023°31'0 0.0
2017-Jun-08 16:00N 37°51' E 023°31'0 0.0
2017-Jun-08 15:30N 37°51' E 023°31'0 0.0
2017-Jun-08 15:00N 37°51' E 023°31'0 0.0
2017-Jun-08 14:27N 37°51' E 023°31'0 0.0
2017-Jun-08 13:30N 37°51' E 023°31'0 0.0
2017-Jun-08 13:00N 37°51' E 023°31'0 0.0
2017-Jun-08 12:30N 37°51' E 023°31'0 0.0
2017-Jun-08 12:00N 37°51' E 023°31'0 0.0
2017-Jun-08 11:30N 37°51' E 023°31'0 0.0
2017-Jun-08 11:00N 37°51' E 023°31'0 0.1
2017-Jun-08 10:27N 37°51' E 023°32'0 0.3
2017-Jun-08 10:00N 37°51' E 023°32'0 0.7
2017-Jun-08 09:30N 37°51' E 023°32'2 4.1
2017-Jun-08 09:00N 37°51' E 023°35'3 6.8
2017-Jun-08 08:30N 37°51' E 023°39'612.8
2017-Jun-08 08:00N 37°45' E 023°43'612.3
2017-Jun-08 07:30N 37°40' E 023°47'713.0
2017-Jun-08 07:00N 37°37' E 023°54'1911.3
2017-Jun-08 05:22N 37°45' E 024°16'713.8
2017-Jun-08 04:52N 37°49' E 024°23'6813.0
2017-Jun-07 23:39N 38°46' E 025°08'412.8
2017-Jun-07 23:20N 38°50' E 025°11'1712.9
2017-Jun-07 22:02N 39°05' E 025°20'113.1
2017-Jun-07 21:56N 39°06' E 025°21'713.1
2017-Jun-07 21:25N 39°12' E 025°25'3013.3
2017-Jun-07 19:10N 39°39' E 025°43'1813.1
2017-Jun-07 17:49N 39°54' E 025°53'514.0
2017-Jun-07 17:27N 39°59' E 025°57'1012.6
2017-Jun-07 16:41N 40°01' E 026°09'  

Dump ship's entire track history